Time;durP1;ratioP1;P1;durP2;ratioP2;P2;SDS_P1;SDS_P2;PMS_P1;PMS_P2;Temp;Humidity;BMP_temperature;BMP_pressure;BME280_temperature;BME280_humidity;BME280_pressure;Samples;Min_cycle;Max_cycle;Signal;HPM_P1;HPM_P2
2024/03/23 00:00:06;;;;;;;11.50;3.67;;;11.20;99.90;;;;;;5113278;28;20452;-68
2024/03/23 00:02:35;;;;;;;6.73;3.20;;;11.10;99.90;;;;;;5113102;28;20479;-68
2024/03/23 00:05:03;;;;;;;9.30;3.60;;;11.10;99.90;;;;;;5113077;28;20442;-68
2024/03/23 00:07:32;;;;;;;9.37;2.60;;;11.10;99.90;;;;;;5113227;28;20454;-68
2024/03/23 00:10:01;;;;;;;8.27;3.07;;;11.10;99.90;;;;;;5113304;28;20444;-68
2024/03/23 00:12:30;;;;;;;6.30;2.60;;;11.00;99.90;;;;;;5112957;28;20473;-68
2024/03/23 00:14:58;;;;;;;4.93;2.10;;;11.00;99.90;;;;;;5113055;28;20481;-68
2024/03/23 00:17:27;;;;;;;5.83;2.40;;;11.00;99.90;;;;;;5112956;28;20449;-68
2024/03/23 00:19:55;;;;;;;7.83;2.60;;;11.10;99.90;;;;;;5112856;28;20536;-68
2024/03/23 00:22:24;;;;;;;5.80;2.73;;;11.10;99.90;;;;;;5114634;28;20449;-68
2024/03/23 00:24:52;;;;;;;7.17;2.80;;;11.00;99.90;;;;;;5117078;28;20448;-68
2024/03/23 00:27:22;;;;;;;10.40;3.10;;;11.00;99.90;;;;;;5116814;28;20480;-68
2024/03/23 00:29:50;;;;;;;8.93;2.60;;;11.00;99.90;;;;;;5116553;28;20924;-68
2024/03/23 00:32:19;;;;;;;12.90;3.30;;;10.90;99.90;;;;;;5116513;28;20457;-68
2024/03/23 00:34:48;;;;;;;9.20;3.40;;;10.90;99.90;;;;;;5116546;28;21031;-68
2024/03/23 00:37:17;;;;;;;10.40;2.53;;;10.90;99.90;;;;;;5116873;28;20453;-68
2024/03/23 00:39:45;;;;;;;9.23;3.20;;;10.80;99.90;;;;;;5116554;28;20452;-68
2024/03/23 00:42:14;;;;;;;13.57;3.00;;;10.80;99.90;;;;;;5116388;28;20865;-68
2024/03/23 00:44:42;;;;;;;7.73;2.90;;;10.80;99.90;;;;;;5116273;28;20481;-68
2024/03/23 00:47:12;;;;;;;7.17;2.43;;;10.80;99.90;;;;;;5116034;28;20534;-68
2024/03/23 00:49:40;;;;;;;9.33;2.80;;;10.80;99.90;;;;;;5116366;28;20467;-68
2024/03/23 00:52:07;;;;;;;11.43;3.10;;;10.80;99.90;;;;;;5116290;28;20452;-67
2024/03/23 00:54:33;;;;;;;10.20;3.43;;;10.70;99.90;;;;;;5116165;28;20481;-68
2024/03/23 00:56:59;;;;;;;11.03;2.70;;;10.70;99.90;;;;;;5116112;28;20532;-68
2024/03/23 00:59:28;;;;;;;12.43;3.20;;;10.70;99.90;;;;;;5116098;28;20192;-68
2024/03/23 01:01:54;;;;;;;11.00;2.83;;;10.70;99.90;;;;;;5116040;28;21025;-68
2024/03/23 01:04:20;;;;;;;7.83;2.77;;;10.60;99.90;;;;;;5116030;28;20959;-68
2024/03/23 01:06:47;;;;;;;9.90;3.27;;;10.70;99.90;;;;;;5116013;28;20818;-68
2024/03/23 01:09:13;;;;;;;5.93;3.23;;;10.60;99.90;;;;;;5116070;28;20192;-68
2024/03/23 01:11:40;;;;;;;15.00;4.27;;;10.70;99.90;;;;;;5115719;28;20959;-68
2024/03/23 01:14:06;;;;;;;9.57;3.40;;;10.80;99.90;;;;;;5115984;28;20548;-68
2024/03/23 01:16:32;;;;;;;6.37;2.90;;;10.80;99.90;;;;;;5115982;28;20537;-68
2024/03/23 01:18:58;;;;;;;5.53;2.50;;;10.90;99.90;;;;;;5115880;28;20220;-68
2024/03/23 01:21:25;;;;;;;9.03;3.23;;;10.90;99.90;;;;;;5115769;28;20527;-68
2024/03/23 01:23:50;;;;;;;8.87;3.20;;;11.00;99.90;;;;;;5115732;28;20282;-70
2024/03/23 01:26:18;;;;;;;13.03;3.50;;;11.10;99.90;;;;;;5115531;28;20540;-70
2024/03/23 01:28:43;;;;;;;10.67;3.07;;;11.10;99.90;;;;;;5115801;28;20194;-68
2024/03/23 01:31:10;;;;;;;11.90;3.73;;;11.20;99.90;;;;;;5115719;28;20875;-68
2024/03/23 01:33:35;;;;;;;7.93;3.00;;;11.10;99.90;;;;;;5114483;28;20302;-68
2024/03/23 01:36:02;;;;;;;14.87;3.67;;;11.10;99.90;;;;;;5115435;28;20553;-68
2024/03/23 01:38:27;;;;;;;9.53;3.00;;;11.20;99.90;;;;;;5115397;28;20202;-68
2024/03/23 01:40:58;;;;;;;9.50;3.07;;;11.20;99.90;;;;;;5115196;28;20450;-68
2024/03/23 01:43:25;;;;;;;7.90;2.83;;;11.20;99.90;;;;;;5115323;28;20643;-68
2024/03/23 01:45:52;;;;;;;11.87;3.33;;;11.10;99.90;;;;;;5115106;28;20572;-68
2024/03/23 01:48:19;;;;;;;8.20;2.90;;;11.00;99.90;;;;;;5115185;28;20440;-68
2024/03/23 01:50:45;;;;;;;14.60;3.50;;;10.90;99.90;;;;;;5115168;28;20511;-68
2024/03/23 01:53:12;;;;;;;6.70;3.47;;;10.90;99.90;;;;;;5114980;28;20560;-68
2024/03/23 01:55:39;;;;;;;7.63;2.90;;;10.80;99.90;;;;;;5114944;28;20453;-68
2024/03/23 01:58:06;;;;;;;4.83;2.90;;;10.80;99.90;;;;;;5114928;28;20925;-68
2024/03/23 02:00:34;;;;;;;8.70;3.73;;;10.80;99.90;;;;;;5115070;28;20457;-70
2024/03/23 02:02:59;;;;;;;8.30;4.37;;;10.90;99.90;;;;;;5114940;28;20541;-68
2024/03/23 02:05:26;;;;;;;14.00;5.23;;;10.80;99.90;;;;;;5114914;28;20876;-68
2024/03/23 02:07:51;;;;;;;12.20;5.60;;;10.90;99.90;;;;;;5114768;28;20279;-68
2024/03/23 02:10:18;;;;;;;9.27;3.60;;;10.90;99.90;;;;;;5114610;28;20540;-68
2024/03/23 02:12:44;;;;;;;14.97;4.47;;;10.90;99.90;;;;;;5114628;28;20651;-68
2024/03/23 02:15:10;;;;;;;14.63;5.30;;;11.00;99.90;;;;;;5114497;28;20477;-68
2024/03/23 02:17:37;;;;;;;7.23;3.43;;;10.90;99.90;;;;;;5114687;28;20557;-68
2024/03/23 02:20:06;;;;;;;6.40;3.57;;;11.00;99.90;;;;;;5114578;28;20489;-68
2024/03/23 02:22:36;;;;;;;8.40;3.40;;;11.00;99.90;;;;;;5114350;28;20478;-68
2024/03/23 02:25:04;;;;;;;13.67;3.50;;;11.00;99.90;;;;;;5114781;28;20464;-70
2024/03/23 02:27:30;;;;;;;8.57;3.20;;;11.00;99.90;;;;;;5114534;28;20532;-70
2024/03/23 02:29:56;;;;;;;9.63;3.50;;;11.00;99.90;;;;;;5114414;28;20647;-70
2024/03/23 02:32:22;;;;;;;9.93;3.20;;;11.00;99.90;;;;;;5114275;28;20190;-69
2024/03/23 02:34:48;;;;;;;6.63;2.73;;;11.00;99.90;;;;;;5114162;28;20568;-70
2024/03/23 02:37:14;;;;;;;10.07;3.70;;;11.00;99.90;;;;;;5114170;28;20278;-70
2024/03/23 02:39:40;;;;;;;7.20;2.70;;;11.00;99.90;;;;;;5114319;28;20544;-70
2024/03/23 02:42:08;;;;;;;7.90;2.87;;;10.90;99.90;;;;;;5114246;28;20271;-70
2024/03/23 02:44:34;;;;;;;9.03;3.43;;;10.90;99.90;;;;;;5113878;28;20533;-70
2024/03/23 02:47:00;;;;;;;8.77;3.47;;;10.90;99.90;;;;;;5113847;28;20541;-70
2024/03/23 02:49:27;;;;;;;6.57;3.43;;;10.90;99.90;;;;;;5114018;28;20222;-70
2024/03/23 02:51:53;;;;;;;8.50;3.33;;;11.00;99.90;;;;;;5113850;28;20445;-70
2024/03/23 02:54:19;;;;;;;10.73;3.90;;;10.90;99.90;;;;;;5113980;28;20485;-70
2024/03/23 02:56:45;;;;;;;7.40;2.50;;;10.90;99.90;;;;;;5113951;28;20551;-70
2024/03/23 02:59:12;;;;;;;8.10;3.40;;;11.00;99.90;;;;;;5113877;28;20288;-70
2024/03/23 03:01:39;;;;;;;7.63;3.07;;;11.00;99.90;;;;;;5113757;28;20460;-70
2024/03/23 03:04:05;;;;;;;9.90;3.23;;;11.10;99.90;;;;;;5113702;28;20532;-70
2024/03/23 03:06:32;;;;;;;4.53;2.43;;;11.10;99.90;;;;;;5113566;28;20457;-70
2024/03/23 03:08:57;;;;;;;11.17;4.40;;;11.00;99.90;;;;;;5113782;28;20449;-70
2024/03/23 03:11:24;;;;;;;9.40;3.37;;;10.90;99.90;;;;;;5113678;28;21002;-70
2024/03/23 03:13:50;;;;;;;4.83;3.03;;;10.80;99.90;;;;;;5113613;28;20641;-70
2024/03/23 03:16:17;;;;;;;11.83;3.30;;;10.80;99.90;;;;;;5113741;28;20545;-70
2024/03/23 03:18:43;;;;;;;11.63;2.80;;;10.90;99.90;;;;;;5113477;28;20721;-70
2024/03/23 03:21:11;;;;;;;12.33;3.40;;;10.90;99.90;;;;;;5113718;28;20639;-69
2024/03/23 03:23:37;;;;;;;10.60;3.13;;;10.90;99.90;;;;;;5113661;28;20477;-69
2024/03/23 03:26:04;;;;;;;10.93;3.50;;;10.90;99.90;;;;;;5113558;28;20456;-70
2024/03/23 03:28:30;;;;;;;11.40;2.90;;;11.00;99.90;;;;;;5113499;28;20528;-70
2024/03/23 03:30:57;;;;;;;11.73;3.87;;;11.00;99.90;;;;;;5113445;28;20457;-70
2024/03/23 03:33:23;;;;;;;9.77;3.60;;;11.00;99.90;;;;;;5113230;28;20537;-70
2024/03/23 03:35:51;;;;;;;10.13;3.80;;;11.00;99.90;;;;;;5113251;28;20453;-70
2024/03/23 03:38:17;;;;;;;7.20;3.83;;;11.00;99.90;;;;;;5113489;28;20473;-70
2024/03/23 03:40:43;;;;;;;6.60;3.47;;;10.90;99.90;;;;;;5113236;28;20485;-69
2024/03/23 03:43:09;;;;;;;5.90;2.83;;;10.90;99.90;;;;;;5113408;28;20278;-70
2024/03/23 03:45:35;;;;;;;9.80;4.00;;;10.90;99.90;;;;;;5113171;28;20928;-69
2024/03/23 03:48:01;;;;;;;8.37;3.20;;;10.90;99.90;;;;;;5113195;28;20275;-70
2024/03/23 03:50:29;;;;;;;6.77;2.90;;;10.90;99.90;;;;;;5113370;28;20481;-71
2024/03/23 03:52:54;;;;;;;9.57;2.90;;;10.90;99.90;;;;;;5113170;28;20647;-70
2024/03/23 03:55:21;;;;;;;9.50;4.67;;;10.90;99.90;;;;;;5113150;28;20526;-70
2024/03/23 03:57:46;;;;;;;11.93;4.10;;;10.90;99.90;;;;;;5115664;28;20195;-70
2024/03/23 04:00:14;;;;;;;12.00;4.20;;;10.80;99.90;;;;;;5117211;28;20459;-69
2024/03/23 04:02:39;;;;;;;7.80;3.90;;;10.80;99.90;;;;;;5117097;28;20196;-70
2024/03/23 04:05:08;;;;;;;14.23;4.70;;;10.80;99.90;;;;;;5117316;28;20552;-70
2024/03/23 04:07:35;;;;;;;9.00;3.80;;;10.90;99.90;;;;;;5117255;28;20220;-70
2024/03/23 04:10:01;;;;;;;11.87;3.90;;;10.90;99.90;;;;;;5117180;28;20441;-70
2024/03/23 04:12:27;;;;;;;6.90;3.33;;;10.90;99.90;;;;;;5117062;28;21028;-70
2024/03/23 04:14:53;;;;;;;9.83;4.13;;;10.90;99.90;;;;;;5116902;28;20218;-69
2024/03/23 04:17:20;;;;;;;11.90;3.90;;;10.90;99.90;;;;;;5116770;28;20552;-69
2024/03/23 04:19:46;;;;;;;11.03;3.83;;;10.90;99.90;;;;;;5117094;28;20200;-69
2024/03/23 04:22:12;;;;;;;10.23;4.00;;;10.90;99.90;;;;;;5116850;28;20446;-69
2024/03/23 04:24:39;;;;;;;10.27;2.93;;;10.60;99.90;;;;;;5116877;28;20278;-69
2024/03/23 04:27:06;;;;;;;11.60;3.23;;;10.60;99.90;;;;;;5116735;28;20449;-70
2024/03/23 04:29:31;;;;;;;10.53;3.67;;;10.70;99.90;;;;;;5116533;28;21153;-69
2024/03/23 04:31:58;;;;;;;12.97;3.40;;;10.70;99.90;;;;;;5116853;28;20473;-70
2024/03/23 04:34:23;;;;;;;7.93;3.27;;;10.70;99.90;;;;;;5116698;28;20647;-69
2024/03/23 04:36:50;;;;;;;11.63;3.43;;;10.80;99.90;;;;;;5116674;28;20537;-69
2024/03/23 04:39:17;;;;;;;15.07;3.60;;;10.80;99.90;;;;;;5116605;28;20279;-69
2024/03/23 04:41:45;;;;;;;11.30;3.23;;;10.90;99.90;;;;;;5116451;28;20809;-69
2024/03/23 04:44:11;;;;;;;8.87;3.20;;;10.80;99.90;;;;;;5116258;28;20438;-69
2024/03/23 04:46:38;;;;;;;9.00;3.97;;;10.80;99.90;;;;;;5116225;28;20470;-70
2024/03/23 04:49:04;;;;;;;5.97;2.63;;;10.80;99.90;;;;;;5116444;28;20538;-69
2024/03/23 04:51:36;;;;;;;8.40;3.23;;;10.80;99.90;;;;;;5116332;28;20525;-69
2024/03/23 04:54:03;;;;;;;8.00;2.40;;;10.70;99.90;;;;;;5116129;28;20469;-69
2024/03/23 04:56:31;;;;;;;5.53;2.77;;;10.70;99.90;;;;;;5116185;28;20449;-69
2024/03/23 04:59:01;;;;;;;7.33;3.03;;;10.60;99.90;;;;;;5116027;28;20445;-70
2024/03/23 05:01:27;;;;;;;7.60;3.17;;;10.60;99.90;;;;;;5116194;28;20477;-69
2024/03/23 05:03:53;;;;;;;6.77;3.07;;;10.50;99.90;;;;;;5116393;28;20448;-69
2024/03/23 05:06:19;;;;;;;8.87;3.27;;;10.50;99.90;;;;;;5116009;28;20540;-69
2024/03/23 05:08:45;;;;;;;11.77;4.40;;;10.40;99.90;;;;;;5115842;28;20214;-69
2024/03/23 05:11:12;;;;;;;7.53;3.03;;;10.50;99.90;;;;;;5115752;28;20971;-69
2024/03/23 05:13:37;;;;;;;9.83;2.80;;;10.50;99.90;;;;;;5115738;28;20532;-70
2024/03/23 05:16:06;;;;;;;5.23;2.80;;;10.50;99.90;;;;;;5115937;28;20540;-69
2024/03/23 05:18:31;;;;;;;10.13;2.80;;;10.50;99.90;;;;;;5115845;28;20188;-69
2024/03/23 05:20:58;;;;;;;9.50;3.10;;;10.50;99.90;;;;;;5115820;28;20889;-69
2024/03/23 05:23:24;;;;;;;7.57;3.00;;;10.50;99.90;;;;;;5115687;28;20196;-69
2024/03/23 05:25:50;;;;;;;6.27;2.40;;;10.40;99.90;;;;;;5115577;28;20949;-69
2024/03/23 05:28:16;;;;;;;8.77;3.00;;;10.20;99.90;;;;;;5115794;28;20188;-70
2024/03/23 05:30:42;;;;;;;4.90;2.10;;;10.20;99.90;;;;;;5115690;28;20458;-70
2024/03/23 05:33:09;;;;;;;9.60;3.70;;;10.00;99.90;;;;;;5115605;28;20245;-69
2024/03/23 05:35:36;;;;;;;4.83;2.67;;;9.90;99.90;;;;;;5115432;28;20482;-69
2024/03/23 05:38:01;;;;;;;7.20;3.50;;;9.80;99.90;;;;;;5115411;28;20850;-69
2024/03/23 05:40:28;;;;;;;7.70;2.60;;;9.60;99.90;;;;;;5115257;28;20545;-69
2024/03/23 05:42:55;;;;;;;8.13;2.30;;;9.40;99.90;;;;;;5115456;28;20195;-69
2024/03/23 05:45:22;;;;;;;7.27;2.37;;;9.30;99.90;;;;;;5115158;28;20481;-69
2024/03/23 05:47:48;;;;;;;3.83;1.77;;;9.30;99.90;;;;;;5115296;28;20445;-69
2024/03/23 05:50:15;;;;;;;2.83;1.90;;;9.40;99.90;;;;;;5115200;28;20448;-69
2024/03/23 05:52:43;;;;;;;6.07;2.00;;;9.30;99.90;;;;;;5114993;28;20937;-69
2024/03/23 05:55:09;;;;;;;4.30;1.47;;;9.30;99.90;;;;;;5114814;28;20500;-69
2024/03/23 05:57:35;;;;;;;3.10;1.77;;;9.20;99.90;;;;;;5115179;28;20514;-69
2024/03/23 06:00:01;;;;;;;3.83;1.73;;;9.10;99.90;;;;;;5115374;27;20230;-68
2024/03/23 06:02:27;;;;;;;5.40;1.80;;;9.00;99.90;;;;;;5114968;28;20489;-67
2024/03/23 06:04:53;;;;;;;6.40;2.00;;;8.80;99.90;;;;;;5114807;28;20195;-67
2024/03/23 06:07:20;;;;;;;5.17;2.13;;;8.90;99.90;;;;;;5114791;28;20556;-67
2024/03/23 06:09:46;;;;;;;3.20;1.40;;;8.90;99.90;;;;;;5114779;28;20191;-67
2024/03/23 06:12:13;;;;;;;6.03;2.27;;;9.00;99.90;;;;;;5114864;28;21021;-69
2024/03/23 06:14:38;;;;;;;3.60;1.83;;;9.00;99.90;;;;;;5114395;28;20678;-67
2024/03/23 06:17:05;;;;;;;5.43;1.87;;;8.90;99.90;;;;;;5114678;28;20540;-67
2024/03/23 06:19:31;;;;;;;3.93;1.70;;;8.90;99.90;;;;;;5113917;28;20188;-67
2024/03/23 06:21:57;;;;;;;3.17;1.20;;;8.90;99.90;;;;;;5114505;28;20453;-69
2024/03/23 06:24:24;;;;;;;3.63;1.73;;;8.90;99.90;;;;;;5114522;28;20198;-69
2024/03/23 06:26:51;;;;;;;5.40;1.90;;;8.90;99.90;;;;;;5114344;28;20510;-69
2024/03/23 06:29:16;;;;;;;7.40;2.13;;;8.90;99.90;;;;;;5114434;28;20873;-69
2024/03/23 06:31:43;;;;;;;2.80;1.77;;;8.90;99.90;;;;;;5114196;28;20556;-69
2024/03/23 06:34:08;;;;;;;3.20;1.80;;;9.00;99.90;;;;;;5114130;28;20208;-69
2024/03/23 06:36:36;;;;;;;4.13;1.83;;;9.00;99.90;;;;;;5114231;28;20990;-69
2024/03/23 06:39:02;;;;;;;4.50;1.93;;;9.00;99.90;;;;;;5114149;28;20183;-69
2024/03/23 06:41:30;;;;;;;4.77;2.40;;;8.80;99.90;;;;;;5114309;28;20886;-69
2024/03/23 06:43:55;;;;;;;3.67;1.70;;;8.70;99.90;;;;;;5114253;28;20188;-69
2024/03/23 06:46:22;;;;;;;8.20;2.43;;;8.60;99.90;;;;;;5113870;28;20901;-69
2024/03/23 06:48:47;;;;;;;6.50;1.77;;;8.60;99.90;;;;;;5114016;28;20188;-69
2024/03/23 06:51:14;;;;;;;9.40;2.80;;;8.60;99.90;;;;;;5113827;28;21115;-69
2024/03/23 06:53:39;;;;;;;5.10;1.57;;;8.50;99.90;;;;;;5113812;28;20195;-69
2024/03/23 06:56:06;;;;;;;7.63;3.30;;;8.50;99.90;;;;;;5113919;28;20538;-69
2024/03/23 06:58:33;;;;;;;4.60;2.27;;;8.50;99.90;;;;;;5113986;28;20188;-69
2024/03/23 07:01:00;;;;;;;6.00;1.90;;;8.50;99.90;;;;;;5113929;28;20632;-69
2024/03/23 07:03:26;;;;;;;5.03;2.70;;;8.50;99.90;;;;;;5113771;28;20803;-69
2024/03/23 07:05:52;;;;;;;5.67;1.90;;;8.50;99.90;;;;;;5113597;28;20514;-70
2024/03/23 07:08:21;;;;;;;4.30;1.90;;;8.60;99.90;;;;;;5113574;28;20479;-69
2024/03/23 07:10:47;;;;;;;8.67;2.47;;;8.60;99.90;;;;;;5113803;28;20489;-70
2024/03/23 07:13:13;;;;;;;7.50;3.03;;;8.80;99.90;;;;;;5113461;28;20970;-69
2024/03/23 07:15:41;;;;;;;4.33;2.90;;;8.80;99.90;;;;;;5113524;28;20568;-69
2024/03/23 07:18:06;;;;;;;6.00;1.97;;;8.70;99.90;;;;;;5113538;28;20187;-69
2024/03/23 07:20:33;;;;;;;8.10;2.80;;;8.70;99.90;;;;;;5113438;28;20541;-69
2024/03/23 07:22:58;;;;;;;4.27;2.10;;;8.70;99.90;;;;;;5113641;28;20274;-69
2024/03/23 07:25:26;;;;;;;4.50;2.60;;;8.70;99.90;;;;;;5113552;28;20545;-69
2024/03/23 07:27:53;;;;;;;4.03;1.83;;;8.70;99.90;;;;;;5113503;28;20196;-69
2024/03/23 07:30:19;;;;;;;4.13;2.23;;;8.60;99.90;;;;;;5113421;28;20514;-69
2024/03/23 07:32:47;;;;;;;7.93;2.63;;;8.60;99.90;;;;;;5112490;28;20441;-69
2024/03/23 07:35:13;;;;;;;4.00;1.67;;;8.60;99.90;;;;;;5113058;28;20485;-69
2024/03/23 07:37:39;;;;;;;4.30;1.90;;;8.70;99.90;;;;;;5113500;28;20528;-69
2024/03/23 07:40:07;;;;;;;6.20;1.83;;;8.70;99.90;;;;;;5113402;28;20545;-69
2024/03/23 07:42:32;;;;;;;7.40;2.23;;;8.70;99.90;;;;;;5113331;28;20192;-69
2024/03/23 07:44:59;;;;;;;4.90;2.00;;;8.70;99.90;;;;;;5113428;28;20450;-69
2024/03/23 07:47:25;;;;;;;7.37;2.20;;;8.80;99.90;;;;;;5113253;28;20279;-69
2024/03/23 07:49:52;;;;;;;3.00;2.67;;;8.80;99.90;;;;;;5113145;28;20537;-69
2024/03/23 07:52:19;;;;;;;8.20;2.20;;;8.70;99.90;;;;;;5113372;28;20461;-69
2024/03/23 07:54:44;;;;;;;6.17;2.40;;;8.70;99.90;;;;;;5113234;28;20483;-69
2024/03/23 07:57:11;;;;;;;6.10;2.43;;;8.70;99.90;;;;;;5113192;28;20615;-69
2024/03/23 07:59:37;;;;;;;4.93;2.00;;;8.70;99.90;;;;;;5113120;28;20275;-69
2024/03/23 08:02:03;;;;;;;8.13;2.33;;;8.70;99.90;;;;;;5112977;28;20528;-69
2024/03/23 08:04:30;;;;;;;7.87;2.30;;;8.70;99.90;;;;;;5113136;28;20809;-69
2024/03/23 08:06:57;;;;;;;4.90;1.97;;;8.70;99.90;;;;;;5112995;28;20453;-69
2024/03/23 08:09:23;;;;;;;6.50;1.97;;;8.70;99.90;;;;;;5113110;28;20493;-69
2024/03/23 08:11:49;;;;;;;8.23;2.47;;;8.70;99.90;;;;;;5113064;28;20441;-69
2024/03/23 08:14:15;;;;;;;8.63;2.90;;;8.70;99.90;;;;;;5112882;28;20549;-69
2024/03/23 08:16:41;;;;;;;4.27;2.03;;;8.60;99.90;;;;;;5112878;28;20196;-69
2024/03/23 08:19:08;;;;;;;6.73;2.17;;;8.60;99.90;;;;;;5113210;28;20545;-69
2024/03/23 08:21:34;;;;;;;7.63;2.93;;;8.60;99.90;;;;;;5113073;28;20191;-69
2024/03/23 08:24:02;;;;;;;5.40;2.30;;;8.50;99.90;;;;;;5112962;28;20829;-69
2024/03/23 08:26:28;;;;;;;4.07;2.30;;;8.50;99.90;;;;;;5112981;28;20557;-70
2024/03/23 08:28:54;;;;;;;4.80;2.20;;;8.40;99.90;;;;;;5112818;28;20445;-69
2024/03/23 08:31:20;;;;;;;4.10;1.77;;;8.50;99.90;;;;;;5112704;28;20195;-69
2024/03/23 08:33:47;;;;;;;5.47;1.90;;;8.40;99.90;;;;;;5113000;28;21032;-69
2024/03/23 08:36:14;;;;;;;2.50;1.63;;;8.50;99.90;;;;;;5112912;28;20307;-69
2024/03/23 08:38:40;;;;;;;4.37;2.10;;;8.50;99.90;;;;;;5112873;28;20446;-69
2024/03/23 08:41:09;;;;;;;2.77;1.50;;;8.40;99.90;;;;;;5112646;28;20941;-69
2024/03/23 08:43:37;;;;;;;4.77;2.37;;;8.40;99.90;;;;;;5114413;28;20462;-69
2024/03/23 08:46:04;;;;;;;3.60;2.17;;;8.40;99.90;;;;;;5116030;28;20469;-70
2024/03/23 08:48:31;;;;;;;2.37;1.50;;;8.30;99.90;;;;;;5116445;28;20536;-69
2024/03/23 08:51:00;;;;;;;3.10;1.73;;;8.20;99.90;;;;;;5116357;28;20528;-69
2024/03/23 08:53:28;;;;;;;6.00;1.80;;;8.10;99.90;;;;;;5116305;28;20452;-69
2024/03/23 08:55:54;;;;;;;1.53;1.40;;;8.10;99.90;;;;;;5116057;28;20481;-69
2024/03/23 08:58:21;;;;;;;2.87;1.90;;;8.10;99.90;;;;;;5116116;28;20556;-69
2024/03/23 09:00:47;;;;;;;4.53;1.40;;;8.20;99.90;;;;;;5116083;28;20187;-69
2024/03/23 09:03:14;;;;;;;1.47;1.37;;;8.00;99.90;;;;;;5116126;28;20540;-69
2024/03/23 09:05:39;;;;;;;1.90;1.03;;;8.00;99.90;;;;;;5116165;28;20192;-69
2024/03/23 09:08:08;;;;;;;3.73;1.40;;;7.90;99.90;;;;;;5115965;28;20540;-69
2024/03/23 09:10:38;;;;;;;2.63;1.20;;;7.80;99.90;;;;;;5115895;28;20192;-69
2024/03/23 09:13:05;;;;;;;1.80;1.37;;;7.60;99.90;;;;;;5115765;28;20492;-69
2024/03/23 09:15:32;;;;;;;2.60;1.10;;;7.60;99.90;;;;;;5115916;28;20867;-69
2024/03/23 09:18:00;;;;;;;2.97;1.27;;;7.60;99.90;;;;;;5115708;28;20945;-69
2024/03/23 09:20:25;;;;;;;3.00;1.33;;;7.60;99.90;;;;;;5115775;28;20450;-69
2024/03/23 09:22:52;;;;;;;3.60;1.17;;;7.60;99.90;;;;;;5115723;28;20941;-69
2024/03/23 09:25:17;;;;;;;3.73;1.57;;;7.50;99.90;;;;;;5115550;28;20643;-69
2024/03/23 09:27:47;;;;;;;4.27;1.60;;;7.40;99.90;;;;;;5115529;28;20545;-69
2024/03/23 09:30:13;;;;;;;2.60;1.60;;;7.40;99.90;;;;;;5115616;28;20188;-69
2024/03/23 09:32:42;;;;;;;3.10;0.90;;;7.30;99.90;;;;;;5115452;28;20428;-69
2024/03/23 09:35:08;;;;;;;1.75;1.10;;;7.30;99.90;;;;;;5115350;28;20465;-68
2024/03/23 09:37:34;;;;;;;1.67;1.00;;;7.20;99.90;;;;;;5115344;28;20275;-68
2024/03/23 09:40:00;;;;;;;2.40;0.90;;;7.30;99.90;;;;;;5115211;28;20188;-69
2024/03/23 09:42:26;;;;;;;1.43;0.80;;;7.30;99.90;;;;;;5115392;28;20454;-69
2024/03/23 09:44:52;;;;;;;2.50;1.20;;;7.30;99.90;;;;;;5115496;28;20282;-69
2024/03/23 09:47:18;;;;;;;2.20;1.30;;;7.20;99.90;;;;;;5115326;28;20523;-69
2024/03/23 09:49:45;;;;;;;2.90;1.30;;;7.10;99.90;;;;;;5115215;28;20222;-69
2024/03/23 09:52:12;;;;;;;2.53;1.30;;;7.10;99.90;;;;;;5115032;28;20537;-69
2024/03/23 09:54:37;;;;;;;2.33;1.40;;;7.00;99.90;;;;;;5113895;28;20448;-69
2024/03/23 09:57:05;;;;;;;1.63;1.53;;;6.90;99.90;;;;;;5115175;28;20541;-69
2024/03/23 09:59:33;;;;;;;2.00;0.93;;;6.90;99.90;;;;;;5114959;28;20194;-69
2024/03/23 10:02:01;;;;;;;4.60;0.90;;;6.90;99.90;;;;;;5114996;28;20454;-69
2024/03/23 10:04:39;;;;;;;1.75;1.40;;;6.60;99.90;;;;;;5114867;28;20908;-69
2024/03/23 10:07:14;;;;;;;1.47;1.13;;;6.50;99.90;;;;;;5114739;28;20643;-69
2024/03/23 10:09:40;;;;;;;2.35;1.80;;;6.60;99.90;;;;;;5114897;28;20482;-68
2024/03/23 10:12:12;;;;;;;2.00;0.93;;;6.40;99.90;;;;;;5114753;28;20188;-69
2024/03/23 10:14:37;;;;;;;2.93;1.00;;;6.40;99.90;;;;;;5114395;28;20888;-69
2024/03/23 10:17:15;;;;;;;3.30;1.17;;;6.40;99.90;;;;;;5114564;28;20483;-69
2024/03/23 10:19:42;;;;;;;5.10;1.00;;;6.50;99.90;;;;;;5114428;28;20187;-69
2024/03/23 10:22:09;;;;;;;1.67;0.87;;;6.50;99.90;;;;;;5114721;28;20514;-69
2024/03/23 10:24:36;;;;;;;1.50;1.07;;;6.40;99.90;;;;;;5114575;28;20454;-69
2024/03/23 10:27:02;;;;;;;3.65;1.23;;;6.50;99.90;;;;;;5114462;28;20450;-70
2024/03/23 10:29:28;;;;;;;4.37;1.40;;;6.40;99.90;;;;;;5114457;28;20274;-69
2024/03/23 10:31:55;;;;;;;1.77;0.90;;;6.50;99.90;;;;;;5114362;28;20576;-69
2024/03/23 10:34:25;;;;;;;5.40;2.77;;;6.60;99.90;;;;;;5114137;28;20198;-69
2024/03/23 10:36:54;;;;;;;3.00;2.20;;;6.70;99.90;;;;;;5114348;28;20481;-69
2024/03/23 10:39:21;;;;;;;2.37;1.53;;;6.80;99.90;;;;;;5114299;28;20449;-69
2024/03/23 10:41:50;;;;;;;1.67;1.57;;;6.90;99.90;;;;;;5114262;28;20536;-69
2024/03/23 10:44:18;;;;;;;4.00;2.00;;;6.80;99.90;;;;;;5114141;28;20469;-69
2024/03/23 10:46:44;;;;;;;5.10;3.67;;;6.80;99.90;;;;;;5113782;28;20492;-69
2024/03/23 10:49:10;;;;;;;2.93;1.67;;;6.60;99.90;;;;;;5113889;28;20441;-69
2024/03/23 10:51:36;;;;;;;3.53;1.60;;;6.60;99.90;;;;;;5114084;28;20537;-69
2024/03/23 10:54:05;;;;;;;6.37;1.70;;;6.60;99.90;;;;;;5114063;28;20280;-69
2024/03/23 10:56:35;;;;;;;4.63;1.43;;;6.50;99.90;;;;;;5113920;28;21010;-69
2024/03/23 10:59:07;;;;;;;4.30;2.00;;;6.40;99.90;;;;;;5113771;28;20445;-69
2024/03/23 11:01:33;;;;;;;13.13;4.23;;;6.30;99.90;;;;;;5113634;28;20453;-69
2024/03/23 11:03:59;;;;;;;13.00;3.30;;;6.30;99.90;;;;;;5113889;28;20504;-69
2024/03/23 11:06:36;;;;;;;8.30;4.00;;;6.30;99.90;;;;;;5113606;28;20600;-69
2024/03/23 11:09:01;;;;;;;7.30;3.07;;;6.30;99.90;;;;;;5113731;28;20196;-69
2024/03/23 11:11:31;;;;;;;8.30;1.83;;;6.40;99.90;;;;;;5113664;28;20532;-69
2024/03/23 11:13:57;;;;;;;6.20;2.97;;;6.50;99.90;;;;;;5113416;28;20192;-69
2024/03/23 11:16:29;;;;;;;11.70;2.40;;;6.60;99.90;;;;;;5113416;28;20485;-69
2024/03/23 11:19:36;;;;;;;1.57;1.40;;;6.60;99.90;;;;;;5113715;28;20441;-69
2024/03/23 11:22:03;;;;;;;4.60;1.70;;;6.60;99.90;;;;;;5113483;28;20971;-69
2024/03/23 11:24:28;;;;;;;6.05;1.95;;;6.80;99.90;;;;;;5113689;28;20192;-69
2024/03/23 11:26:55;;;;;;;11.07;2.87;;;6.90;99.90;;;;;;5113618;28;20192;-69
2024/03/23 11:29:21;;;;;;;17.87;5.17;;;7.10;99.90;;;;;;5113639;28;20278;-69
2024/03/23 11:31:48;;;;;;;10.73;4.07;;;7.10;99.90;;;;;;5113524;28;20972;-69
2024/03/23 11:34:15;;;;;;;4.00;2.43;;;7.10;99.90;;;;;;5113323;28;20188;-69
2024/03/23 11:36:43;;;;;;;5.83;2.17;;;7.30;99.90;;;;;;5112377;28;20496;-69
2024/03/23 11:39:13;;;;;;;5.10;2.30;;;7.50;99.90;;;;;;5113480;28;20465;-69
2024/03/23 11:41:49;;;;;;;4.63;2.67;;;7.80;99.90;;;;;;5113384;28;20487;-69
2024/03/23 11:44:19;;;;;;;8.47;3.07;;;7.90;99.90;;;;;;5113275;28;20452;-69
2024/03/23 11:46:46;;;;;;;4.93;2.00;;;8.00;99.90;;;;;;5113158;28;20562;-69
2024/03/23 11:49:22;;;;;;;3.40;1.97;;;7.90;99.90;;;;;;5113142;28;21014;-68
2024/03/23 11:51:51;;;;;;;4.07;2.90;;;8.00;99.90;;;;;;5113379;28;20872;-69
2024/03/23 11:54:16;;;;;;;5.43;3.33;;;8.20;99.90;;;;;;5113222;28;20448;-69
2024/03/23 11:56:56;;;;;;;3.43;2.23;;;8.20;99.90;;;;;;5113070;28;20572;-69
2024/03/23 11:59:35;;;;;;;3.80;1.93;;;8.30;99.90;;;;;;5113200;28;20206;-69
2024/03/23 12:02:06;;;;;;;4.00;2.20;;;8.30;99.90;;;;;;5113428;28;20755;-69
2024/03/23 12:04:32;;;;;;;4.03;2.53;;;8.40;99.90;;;;;;5113241;28;20473;-69
2024/03/23 12:07:13;;;;;;;2.87;2.53;;;8.40;99.90;;;;;;5112876;28;20504;-69
2024/03/23 12:09:39;;;;;;;3.30;3.00;;;8.40;99.90;;;;;;5112917;28;20245;-69
2024/03/23 12:12:15;;;;;;;4.00;2.70;;;8.50;99.90;;;;;;5112957;28;20933;-69
2024/03/23 12:14:41;;;;;;;5.53;3.10;;;8.60;99.90;;;;;;5113191;28;20199;-69
2024/03/23 12:17:12;;;;;;;8.60;3.07;;;8.80;99.90;;;;;;5112766;28;20996;-69
2024/03/23 12:19:38;;;;;;;4.10;2.20;;;8.60;99.90;;;;;;5116842;28;20265;-69
2024/03/23 12:22:05;;;;;;;6.67;2.83;;;8.70;99.90;;;;;;5116932;28;20925;-69
2024/03/23 12:24:34;;;;;;;3.90;2.20;;;8.90;99.90;;;;;;5116875;28;20869;-69
2024/03/23 12:27:02;;;;;;;4.70;2.53;;;9.10;99.90;;;;;;5116997;28;20446;-69
2024/03/23 12:29:29;;;;;;;5.83;2.90;;;9.20;99.90;;;;;;5116774;28;20445;-69
2024/03/23 12:31:55;;;;;;;4.33;2.80;;;9.30;99.90;;;;;;5116793;28;20495;-69
2024/03/23 12:34:22;;;;;;;6.37;2.10;;;9.30;99.90;;;;;;5116694;28;20441;-69
2024/03/23 12:36:47;;;;;;;7.33;2.37;;;9.30;99.90;;;;;;5116636;28;20504;-69
2024/03/23 12:39:14;;;;;;;5.90;2.17;;;9.30;99.90;;;;;;5116456;28;20960;-69
2024/03/23 12:41:41;;;;;;;5.50;2.43;;;9.30;99.90;;;;;;5116758;28;20195;-69
2024/03/23 12:44:08;;;;;;;2.47;1.70;;;9.40;99.90;;;;;;5116518;28;20539;-69
2024/03/23 12:46:34;;;;;;;3.57;1.67;;;9.50;99.90;;;;;;5116266;28;20488;-70
2024/03/23 12:49:00;;;;;;;4.40;2.10;;;9.50;99.90;;;;;;5116814;28;20944;-69